sensor_id;sensor_type;location;lat;lon;timestamp;temperature;humidity
56172;DHT22;42052;41.634;-0.946;2023-07-24T00:01:58;26.00;52.70
56172;DHT22;42052;41.634;-0.946;2023-07-24T00:04:24;26.00;52.70
56172;DHT22;42052;41.634;-0.946;2023-07-24T00:06:50;26.10;52.90
56172;DHT22;42052;41.634;-0.946;2023-07-24T00:09:16;26.10;53.10
56172;DHT22;42052;41.634;-0.946;2023-07-24T00:11:41;26.20;53.20
56172;DHT22;42052;41.634;-0.946;2023-07-24T00:14:07;26.20;53.50
56172;DHT22;42052;41.634;-0.946;2023-07-24T00:16:33;26.30;53.40
56172;DHT22;42052;41.634;-0.946;2023-07-24T00:18:58;26.30;53.40
56172;DHT22;42052;41.634;-0.946;2023-07-24T00:21:24;26.40;53.30
56172;DHT22;42052;41.634;-0.946;2023-07-24T00:23:50;26.40;53.40
56172;DHT22;42052;41.634;-0.946;2023-07-24T00:26:16;26.40;53.40
56172;DHT22;42052;41.634;-0.946;2023-07-24T00:28:41;26.50;53.30
56172;DHT22;42052;41.634;-0.946;2023-07-24T00:31:07;26.50;53.30
56172;DHT22;42052;41.634;-0.946;2023-07-24T00:33:33;26.50;53.20
56172;DHT22;42052;41.634;-0.946;2023-07-24T00:35:59;26.60;53.10
56172;DHT22;42052;41.634;-0.946;2023-07-24T00:38:24;26.60;53.00
56172;DHT22;42052;41.634;-0.946;2023-07-24T00:40:50;26.60;53.50
56172;DHT22;42052;41.634;-0.946;2023-07-24T00:43:16;26.60;53.70
56172;DHT22;42052;41.634;-0.946;2023-07-24T00:45:43;26.60;53.00
56172;DHT22;42052;41.634;-0.946;2023-07-24T00:48:10;26.60;52.90
56172;DHT22;42052;41.634;-0.946;2023-07-24T00:50:37;26.60;52.60
56172;DHT22;42052;41.634;-0.946;2023-07-24T00:53:04;26.70;52.60
56172;DHT22;42052;41.634;-0.946;2023-07-24T00:55:30;26.70;52.50
56172;DHT22;42052;41.634;-0.946;2023-07-24T00:57:58;26.70;52.40
56172;DHT22;42052;41.634;-0.946;2023-07-24T01:00:24;26.70;52.40
56172;DHT22;42052;41.634;-0.946;2023-07-24T01:02:50;26.70;52.50
56172;DHT22;42052;41.634;-0.946;2023-07-24T01:05:17;26.70;52.40
56172;DHT22;42052;41.634;-0.946;2023-07-24T01:07:43;26.70;52.30
56172;DHT22;42052;41.634;-0.946;2023-07-24T01:10:09;26.70;52.40
56172;DHT22;42052;41.634;-0.946;2023-07-24T01:15:19;26.70;52.30
56172;DHT22;42052;41.634;-0.946;2023-07-24T01:17:50;26.80;52.30
56172;DHT22;42052;41.634;-0.946;2023-07-24T01:20:17;26.80;52.20
56172;DHT22;42052;41.634;-0.946;2023-07-24T01:25:54;26.80;52.30
56172;DHT22;42052;41.634;-0.946;2023-07-24T01:28:20;26.80;52.30
56172;DHT22;42052;41.634;-0.946;2023-07-24T01:30:46;26.80;52.90
56172;DHT22;42052;41.634;-0.946;2023-07-24T01:33:12;26.80;52.10
56172;DHT22;42052;41.634;-0.946;2023-07-24T01:35:41;26.80;52.20
56172;DHT22;42052;41.634;-0.946;2023-07-24T01:38:13;26.80;52.20
56172;DHT22;42052;41.634;-0.946;2023-07-24T01:40:40;26.80;52.30
56172;DHT22;42052;41.634;-0.946;2023-07-24T01:43:06;26.80;52.30
56172;DHT22;42052;41.634;-0.946;2023-07-24T01:45:32;26.80;52.20
56172;DHT22;42052;41.634;-0.946;2023-07-24T01:47:58;26.80;52.30
56172;DHT22;42052;41.634;-0.946;2023-07-24T01:50:24;26.80;52.30
56172;DHT22;42052;41.634;-0.946;2023-07-24T01:52:50;26.80;52.30
56172;DHT22;42052;41.634;-0.946;2023-07-24T01:55:16;26.80;52.30
56172;DHT22;42052;41.634;-0.946;2023-07-24T01:57:42;26.80;52.20
56172;DHT22;42052;41.634;-0.946;2023-07-24T02:00:08;26.80;52.20
56172;DHT22;42052;41.634;-0.946;2023-07-24T02:02:34;26.80;52.40
56172;DHT22;42052;41.634;-0.946;2023-07-24T02:05:00;26.80;52.20
56172;DHT22;42052;41.634;-0.946;2023-07-24T02:07:25;26.80;52.90
56172;DHT22;42052;41.634;-0.946;2023-07-24T02:09:51;26.80;52.10
56172;DHT22;42052;41.634;-0.946;2023-07-24T02:12:17;26.80;52.10
56172;DHT22;42052;41.634;-0.946;2023-07-24T02:14:42;26.80;52.10
56172;DHT22;42052;41.634;-0.946;2023-07-24T02:17:08;26.80;52.00
56172;DHT22;42052;41.634;-0.946;2023-07-24T02:19:34;26.80;52.00
56172;DHT22;42052;41.634;-0.946;2023-07-24T02:21:59;26.80;52.00
56172;DHT22;42052;41.634;-0.946;2023-07-24T02:24:25;26.80;51.90
56172;DHT22;42052;41.634;-0.946;2023-07-24T02:26:51;26.80;51.90
56172;DHT22;42052;41.634;-0.946;2023-07-24T02:29:17;26.80;51.80
56172;DHT22;42052;41.634;-0.946;2023-07-24T02:31:42;26.80;51.70
56172;DHT22;42052;41.634;-0.946;2023-07-24T02:34:08;26.80;51.80
56172;DHT22;42052;41.634;-0.946;2023-07-24T02:36:34;26.80;51.80
56172;DHT22;42052;41.634;-0.946;2023-07-24T02:39:00;26.80;51.70
56172;DHT22;42052;41.634;-0.946;2023-07-24T02:41:25;26.80;51.50
56172;DHT22;42052;41.634;-0.946;2023-07-24T02:43:51;26.80;51.20
56172;DHT22;42052;41.634;-0.946;2023-07-24T02:46:17;26.80;51.10
56172;DHT22;42052;41.634;-0.946;2023-07-24T02:48:42;26.80;50.70
56172;DHT22;42052;41.634;-0.946;2023-07-24T02:51:08;26.80;50.20
56172;DHT22;42052;41.634;-0.946;2023-07-24T02:53:34;26.80;49.90
56172;DHT22;42052;41.634;-0.946;2023-07-24T02:56:01;26.80;49.70
56172;DHT22;42052;41.634;-0.946;2023-07-24T02:58:27;26.80;49.40
56172;DHT22;42052;41.634;-0.946;2023-07-24T03:00:53;26.80;49.40
56172;DHT22;42052;41.634;-0.946;2023-07-24T03:03:19;26.80;49.30
56172;DHT22;42052;41.634;-0.946;2023-07-24T03:05:45;26.80;49.20
56172;DHT22;42052;41.634;-0.946;2023-07-24T03:08:10;26.80;49.00
56172;DHT22;42052;41.634;-0.946;2023-07-24T03:10:40;26.80;48.90
56172;DHT22;42052;41.634;-0.946;2023-07-24T03:13:06;26.80;48.70
56172;DHT22;42052;41.634;-0.946;2023-07-24T03:15:32;26.80;48.50
56172;DHT22;42052;41.634;-0.946;2023-07-24T03:17:58;26.80;48.40
56172;DHT22;42052;41.634;-0.946;2023-07-24T03:20:24;26.80;48.30
56172;DHT22;42052;41.634;-0.946;2023-07-24T03:22:49;26.80;48.20
56172;DHT22;42052;41.634;-0.946;2023-07-24T03:25:15;26.80;47.90
56172;DHT22;42052;41.634;-0.946;2023-07-24T03:27:41;26.80;48.00
56172;DHT22;42052;41.634;-0.946;2023-07-24T03:30:07;26.80;48.00
56172;DHT22;42052;41.634;-0.946;2023-07-24T03:32:33;26.80;47.80
56172;DHT22;42052;41.634;-0.946;2023-07-24T03:34:59;26.80;47.60
56172;DHT22;42052;41.634;-0.946;2023-07-24T03:37:24;26.80;47.40
56172;DHT22;42052;41.634;-0.946;2023-07-24T03:39:50;26.80;47.20
56172;DHT22;42052;41.634;-0.946;2023-07-24T03:42:30;26.80;46.70
56172;DHT22;42052;41.634;-0.946;2023-07-24T03:44:57;26.80;46.60
56172;DHT22;42052;41.634;-0.946;2023-07-24T03:47:24;26.80;46.30
56172;DHT22;42052;41.634;-0.946;2023-07-24T03:49:50;26.80;46.00
56172;DHT22;42052;41.634;-0.946;2023-07-24T03:52:16;26.80;46.20
56172;DHT22;42052;41.634;-0.946;2023-07-24T03:54:42;26.80;46.10
56172;DHT22;42052;41.634;-0.946;2023-07-24T03:57:08;26.80;45.80
56172;DHT22;42052;41.634;-0.946;2023-07-24T03:59:34;26.80;45.40
56172;DHT22;42052;41.634;-0.946;2023-07-24T04:01:59;26.80;45.40
56172;DHT22;42052;41.634;-0.946;2023-07-24T04:04:25;26.80;45.30
56172;DHT22;42052;41.634;-0.946;2023-07-24T04:06:51;26.80;45.20
56172;DHT22;42052;41.634;-0.946;2023-07-24T04:09:17;26.80;44.80
56172;DHT22;42052;41.634;-0.946;2023-07-24T04:11:43;26.80;44.80
56172;DHT22;42052;41.634;-0.946;2023-07-24T04:14:09;26.80;44.50
56172;DHT22;42052;41.634;-0.946;2023-07-24T04:16:35;26.80;44.40
56172;DHT22;42052;41.634;-0.946;2023-07-24T04:19:01;26.80;44.60
56172;DHT22;42052;41.634;-0.946;2023-07-24T04:21:27;26.70;45.00
56172;DHT22;42052;41.634;-0.946;2023-07-24T04:23:52;26.80;44.60
56172;DHT22;42052;41.634;-0.946;2023-07-24T04:26:18;26.80;44.30
56172;DHT22;42052;41.634;-0.946;2023-07-24T04:28:44;26.80;43.80
56172;DHT22;42052;41.634;-0.946;2023-07-24T04:31:09;26.80;43.60
56172;DHT22;42052;41.634;-0.946;2023-07-24T04:33:35;26.80;43.90
56172;DHT22;42052;41.634;-0.946;2023-07-24T04:36:01;26.80;43.60
56172;DHT22;42052;41.634;-0.946;2023-07-24T04:38:27;26.80;43.30
56172;DHT22;42052;41.634;-0.946;2023-07-24T04:40:53;26.80;43.50
56172;DHT22;42052;41.634;-0.946;2023-07-24T04:43:18;26.80;43.30
56172;DHT22;42052;41.634;-0.946;2023-07-24T04:45:44;26.80;43.30
56172;DHT22;42052;41.634;-0.946;2023-07-24T04:48:10;26.80;43.50
56172;DHT22;42052;41.634;-0.946;2023-07-24T04:50:36;26.70;43.30
56172;DHT22;42052;41.634;-0.946;2023-07-24T04:53:01;26.80;43.30
56172;DHT22;42052;41.634;-0.946;2023-07-24T04:55:27;26.80;43.20
56172;DHT22;42052;41.634;-0.946;2023-07-24T04:57:53;26.80;43.00
56172;DHT22;42052;41.634;-0.946;2023-07-24T05:00:19;26.80;43.20
56172;DHT22;42052;41.634;-0.946;2023-07-24T05:02:44;26.80;43.00
56172;DHT22;42052;41.634;-0.946;2023-07-24T05:05:10;26.80;43.20
56172;DHT22;42052;41.634;-0.946;2023-07-24T05:07:36;26.80;43.20
56172;DHT22;42052;41.634;-0.946;2023-07-24T05:10:02;26.80;43.10
56172;DHT22;42052;41.634;-0.946;2023-07-24T05:12:28;26.80;42.90
56172;DHT22;42052;41.634;-0.946;2023-07-24T05:14:53;26.70;42.80
56172;DHT22;42052;41.634;-0.946;2023-07-24T05:17:19;26.80;42.70
56172;DHT22;42052;41.634;-0.946;2023-07-24T05:19:45;26.80;42.70
56172;DHT22;42052;41.634;-0.946;2023-07-24T05:22:10;26.80;42.80
56172;DHT22;42052;41.634;-0.946;2023-07-24T05:24:37;26.80;42.80
56172;DHT22;42052;41.634;-0.946;2023-07-24T05:27:04;26.80;42.80
56172;DHT22;42052;41.634;-0.946;2023-07-24T05:29:30;26.80;42.60
56172;DHT22;42052;41.634;-0.946;2023-07-24T05:31:56;26.80;42.90
56172;DHT22;42052;41.634;-0.946;2023-07-24T05:34:21;26.80;42.90
56172;DHT22;42052;41.634;-0.946;2023-07-24T05:36:47;26.80;42.70
56172;DHT22;42052;41.634;-0.946;2023-07-24T05:39:13;26.80;42.90
56172;DHT22;42052;41.634;-0.946;2023-07-24T05:41:39;26.80;42.90
56172;DHT22;42052;41.634;-0.946;2023-07-24T05:44:05;26.80;43.40
56172;DHT22;42052;41.634;-0.946;2023-07-24T05:46:30;26.80;43.70
56172;DHT22;42052;41.634;-0.946;2023-07-24T05:48:56;26.80;43.90
56172;DHT22;42052;41.634;-0.946;2023-07-24T05:51:22;26.80;44.10
56172;DHT22;42052;41.634;-0.946;2023-07-24T05:53:48;26.80;44.30
56172;DHT22;42052;41.634;-0.946;2023-07-24T05:56:14;26.80;44.50
56172;DHT22;42052;41.634;-0.946;2023-07-24T05:58:40;26.80;44.50
56172;DHT22;42052;41.634;-0.946;2023-07-24T06:01:06;26.90;44.70
56172;DHT22;42052;41.634;-0.946;2023-07-24T06:03:36;26.80;44.60
56172;DHT22;42052;41.634;-0.946;2023-07-24T06:06:02;26.80;44.70
56172;DHT22;42052;41.634;-0.946;2023-07-24T06:08:28;26.90;44.90
56172;DHT22;42052;41.634;-0.946;2023-07-24T06:10:54;26.80;44.90
56172;DHT22;42052;41.634;-0.946;2023-07-24T06:13:20;26.90;44.90
56172;DHT22;42052;41.634;-0.946;2023-07-24T06:15:49;26.90;45.00
56172;DHT22;42052;41.634;-0.946;2023-07-24T06:18:15;26.90;45.10
56172;DHT22;42052;41.634;-0.946;2023-07-24T06:20:41;26.90;45.10
56172;DHT22;42052;41.634;-0.946;2023-07-24T06:23:07;26.90;45.20
56172;DHT22;42052;41.634;-0.946;2023-07-24T06:25:33;26.90;45.30
56172;DHT22;42052;41.634;-0.946;2023-07-24T06:27:58;26.90;45.30
56172;DHT22;42052;41.634;-0.946;2023-07-24T06:30:24;26.90;45.40
56172;DHT22;42052;41.634;-0.946;2023-07-24T06:32:50;26.90;45.50
56172;DHT22;42052;41.634;-0.946;2023-07-24T06:35:16;26.90;45.50
56172;DHT22;42052;41.634;-0.946;2023-07-24T06:37:42;26.90;45.60
56172;DHT22;42052;41.634;-0.946;2023-07-24T06:40:08;26.90;45.60
56172;DHT22;42052;41.634;-0.946;2023-07-24T06:42:34;26.90;45.60
56172;DHT22;42052;41.634;-0.946;2023-07-24T06:45:00;27.00;45.70
56172;DHT22;42052;41.634;-0.946;2023-07-24T06:47:26;26.90;45.70
56172;DHT22;42052;41.634;-0.946;2023-07-24T06:49:52;27.00;45.90
56172;DHT22;42052;41.634;-0.946;2023-07-24T06:52:17;27.00;45.90
56172;DHT22;42052;41.634;-0.946;2023-07-24T06:54:43;27.00;45.90
56172;DHT22;42052;41.634;-0.946;2023-07-24T06:57:09;27.00;46.00
56172;DHT22;42052;41.634;-0.946;2023-07-24T06:59:35;27.00;46.00
56172;DHT22;42052;41.634;-0.946;2023-07-24T07:02:00;27.00;46.00
56172;DHT22;42052;41.634;-0.946;2023-07-24T07:04:26;27.00;46.00
56172;DHT22;42052;41.634;-0.946;2023-07-24T07:06:52;27.00;46.10
56172;DHT22;42052;41.634;-0.946;2023-07-24T07:09:17;27.00;46.10
56172;DHT22;42052;41.634;-0.946;2023-07-24T07:11:43;27.00;46.10
56172;DHT22;42052;41.634;-0.946;2023-07-24T07:14:10;27.00;46.10
56172;DHT22;42052;41.634;-0.946;2023-07-24T07:16:36;27.00;46.10
56172;DHT22;42052;41.634;-0.946;2023-07-24T07:19:02;27.00;46.10
56172;DHT22;42052;41.634;-0.946;2023-07-24T07:21:28;27.00;46.10
56172;DHT22;42052;41.634;-0.946;2023-07-24T07:23:53;27.00;46.20
56172;DHT22;42052;41.634;-0.946;2023-07-24T07:26:20;27.00;46.20
56172;DHT22;42052;41.634;-0.946;2023-07-24T07:28:46;27.00;46.20
56172;DHT22;42052;41.634;-0.946;2023-07-24T07:31:11;27.00;46.20
56172;DHT22;42052;41.634;-0.946;2023-07-24T07:33:37;27.00;46.20
56172;DHT22;42052;41.634;-0.946;2023-07-24T07:36:03;27.00;46.20
56172;DHT22;42052;41.634;-0.946;2023-07-24T07:38:30;27.00;46.30
56172;DHT22;42052;41.634;-0.946;2023-07-24T07:40:55;27.00;46.30
56172;DHT22;42052;41.634;-0.946;2023-07-24T07:43:21;27.00;46.30
56172;DHT22;42052;41.634;-0.946;2023-07-24T07:45:47;27.00;46.30
56172;DHT22;42052;41.634;-0.946;2023-07-24T07:48:13;27.10;46.30
56172;DHT22;42052;41.634;-0.946;2023-07-24T07:50:39;27.10;46.30
56172;DHT22;42052;41.634;-0.946;2023-07-24T07:53:05;27.10;46.40
56172;DHT22;42052;41.634;-0.946;2023-07-24T07:55:31;27.10;46.40
56172;DHT22;42052;41.634;-0.946;2023-07-24T07:57:56;27.10;46.40
56172;DHT22;42052;41.634;-0.946;2023-07-24T08:00:22;27.10;46.40
56172;DHT22;42052;41.634;-0.946;2023-07-24T08:02:48;27.10;46.40
56172;DHT22;42052;41.634;-0.946;2023-07-24T08:05:14;27.10;46.50
56172;DHT22;42052;41.634;-0.946;2023-07-24T08:07:41;27.10;46.50
56172;DHT22;42052;41.634;-0.946;2023-07-24T08:10:07;27.10;46.50
56172;DHT22;42052;41.634;-0.946;2023-07-24T08:12:33;27.10;46.60
56172;DHT22;42052;41.634;-0.946;2023-07-24T08:14:59;27.10;46.50
56172;DHT22;42052;41.634;-0.946;2023-07-24T08:17:25;27.10;46.50
56172;DHT22;42052;41.634;-0.946;2023-07-24T08:19:50;27.10;46.60
56172;DHT22;42052;41.634;-0.946;2023-07-24T08:22:16;27.10;47.30
56172;DHT22;42052;41.634;-0.946;2023-07-24T08:24:42;27.10;46.60
56172;DHT22;42052;41.634;-0.946;2023-07-24T08:27:10;27.10;47.40
56172;DHT22;42052;41.634;-0.946;2023-07-24T08:29:35;27.10;46.60
56172;DHT22;42052;41.634;-0.946;2023-07-24T08:32:04;27.10;46.60
56172;DHT22;42052;41.634;-0.946;2023-07-24T08:34:29;27.10;46.60
56172;DHT22;42052;41.634;-0.946;2023-07-24T08:36:55;27.10;46.70
56172;DHT22;42052;41.634;-0.946;2023-07-24T08:39:21;27.10;46.70
56172;DHT22;42052;41.634;-0.946;2023-07-24T08:41:46;27.10;46.70
56172;DHT22;42052;41.634;-0.946;2023-07-24T08:44:12;27.10;46.70
56172;DHT22;42052;41.634;-0.946;2023-07-24T08:46:39;27.10;46.70
56172;DHT22;42052;41.634;-0.946;2023-07-24T08:49:11;27.10;46.80
56172;DHT22;42052;41.634;-0.946;2023-07-24T08:51:37;27.10;46.80
56172;DHT22;42052;41.634;-0.946;2023-07-24T08:54:04;27.10;46.80
56172;DHT22;42052;41.634;-0.946;2023-07-24T08:56:30;27.10;46.80
56172;DHT22;42052;41.634;-0.946;2023-07-24T08:58:56;27.10;46.80
56172;DHT22;42052;41.634;-0.946;2023-07-24T09:01:22;27.20;46.80
56172;DHT22;42052;41.634;-0.946;2023-07-24T09:03:47;27.10;46.80
56172;DHT22;42052;41.634;-0.946;2023-07-24T09:06:13;27.10;46.80
56172;DHT22;42052;41.634;-0.946;2023-07-24T09:08:43;27.20;46.90
56172;DHT22;42052;41.634;-0.946;2023-07-24T09:11:10;27.20;46.90
56172;DHT22;42052;41.634;-0.946;2023-07-24T09:13:38;27.20;46.90
56172;DHT22;42052;41.634;-0.946;2023-07-24T09:16:07;27.20;46.90
56172;DHT22;42052;41.634;-0.946;2023-07-24T09:18:39;27.20;46.90
56172;DHT22;42052;41.634;-0.946;2023-07-24T09:21:06;27.20;47.70
56172;DHT22;42052;41.634;-0.946;2023-07-24T09:23:32;27.20;46.90
56172;DHT22;42052;41.634;-0.946;2023-07-24T09:25:57;27.20;46.90
56172;DHT22;42052;41.634;-0.946;2023-07-24T09:28:24;27.20;47.00
56172;DHT22;42052;41.634;-0.946;2023-07-24T09:30:57;27.20;47.00
56172;DHT22;42052;41.634;-0.946;2023-07-24T09:33:37;27.20;47.00
56172;DHT22;42052;41.634;-0.946;2023-07-24T09:36:04;27.20;46.90
56172;DHT22;42052;41.634;-0.946;2023-07-24T09:38:30;27.20;46.90
56172;DHT22;42052;41.634;-0.946;2023-07-24T09:40:57;27.20;47.00
56172;DHT22;42052;41.634;-0.946;2023-07-24T09:43:25;27.20;47.00
56172;DHT22;42052;41.634;-0.946;2023-07-24T09:45:52;27.20;47.00
56172;DHT22;42052;41.634;-0.946;2023-07-24T09:48:19;27.20;47.00
56172;DHT22;42052;41.634;-0.946;2023-07-24T09:50:47;27.20;47.00
56172;DHT22;42052;41.634;-0.946;2023-07-24T09:53:34;27.30;47.00
56172;DHT22;42052;41.634;-0.946;2023-07-24T09:56:04;27.30;47.10
56172;DHT22;42052;41.634;-0.946;2023-07-24T09:58:33;27.30;47.00
56172;DHT22;42052;41.634;-0.946;2023-07-24T10:01:04;27.30;47.10
56172;DHT22;42052;41.634;-0.946;2023-07-24T10:03:34;27.30;47.10
56172;DHT22;42052;41.634;-0.946;2023-07-24T10:06:01;27.30;47.00
56172;DHT22;42052;41.634;-0.946;2023-07-24T10:08:27;27.30;47.00
56172;DHT22;42052;41.634;-0.946;2023-07-24T10:10:53;27.30;47.00
56172;DHT22;42052;41.634;-0.946;2023-07-24T10:13:21;27.30;47.10
56172;DHT22;42052;41.634;-0.946;2023-07-24T10:15:48;27.30;47.00
56172;DHT22;42052;41.634;-0.946;2023-07-24T10:18:16;27.30;47.10
56172;DHT22;42052;41.634;-0.946;2023-07-24T10:20:45;27.30;47.10
56172;DHT22;42052;41.634;-0.946;2023-07-24T10:23:17;27.30;47.10
56172;DHT22;42052;41.634;-0.946;2023-07-24T10:25:44;27.30;47.00
56172;DHT22;42052;41.634;-0.946;2023-07-24T10:28:12;27.30;47.00
56172;DHT22;42052;41.634;-0.946;2023-07-24T10:30:41;27.30;47.00
56172;DHT22;42052;41.634;-0.946;2023-07-24T10:33:11;27.30;47.00
56172;DHT22;42052;41.634;-0.946;2023-07-24T10:35:42;27.30;47.00
56172;DHT22;42052;41.634;-0.946;2023-07-24T10:38:09;27.30;47.10
56172;DHT22;42052;41.634;-0.946;2023-07-24T10:40:35;27.30;47.00
56172;DHT22;42052;41.634;-0.946;2023-07-24T10:43:11;27.40;47.00
56172;DHT22;42052;41.634;-0.946;2023-07-24T10:48:24;27.30;47.00
56172;DHT22;42052;41.634;-0.946;2023-07-24T10:50:52;27.40;47.00
56172;DHT22;42052;41.634;-0.946;2023-07-24T10:53:19;27.40;47.10
56172;DHT22;42052;41.634;-0.946;2023-07-24T10:55:47;27.40;47.00
56172;DHT22;42052;41.634;-0.946;2023-07-24T10:58:13;27.40;47.10
56172;DHT22;42052;41.634;-0.946;2023-07-24T11:00:40;27.40;47.00
56172;DHT22;42052;41.634;-0.946;2023-07-24T11:03:10;27.40;47.00
56172;DHT22;42052;41.634;-0.946;2023-07-24T11:05:43;27.40;47.10
56172;DHT22;42052;41.634;-0.946;2023-07-24T11:08:17;27.40;47.10
56172;DHT22;42052;41.634;-0.946;2023-07-24T11:10:47;27.40;47.10
56172;DHT22;42052;41.634;-0.946;2023-07-24T11:13:14;27.40;47.10
56172;DHT22;42052;41.634;-0.946;2023-07-24T11:15:40;27.40;47.10
56172;DHT22;42052;41.634;-0.946;2023-07-24T11:18:05;27.40;47.10
56172;DHT22;42052;41.634;-0.946;2023-07-24T11:20:47;27.40;47.10
56172;DHT22;42052;41.634;-0.946;2023-07-24T11:23:13;27.40;47.00
56172;DHT22;42052;41.634;-0.946;2023-07-24T11:25:40;27.40;47.10
56172;DHT22;42052;41.634;-0.946;2023-07-24T11:28:07;27.40;47.10
56172;DHT22;42052;41.634;-0.946;2023-07-24T11:30:34;27.40;47.10
56172;DHT22;42052;41.634;-0.946;2023-07-24T11:33:05;27.40;47.80
56172;DHT22;42052;41.634;-0.946;2023-07-24T11:35:31;27.40;47.00
56172;DHT22;42052;41.634;-0.946;2023-07-24T11:37:57;27.40;47.00
56172;DHT22;42052;41.634;-0.946;2023-07-24T11:40:35;27.40;47.00
56172;DHT22;42052;41.634;-0.946;2023-07-24T11:43:02;27.50;47.10
56172;DHT22;42052;41.634;-0.946;2023-07-24T11:45:41;27.40;47.00
56172;DHT22;42052;41.634;-0.946;2023-07-24T11:48:10;27.50;47.00
56172;DHT22;42052;41.634;-0.946;2023-07-24T11:50:44;27.50;47.10
56172;DHT22;42052;41.634;-0.946;2023-07-24T11:53:19;27.50;47.90
56172;DHT22;42052;41.634;-0.946;2023-07-24T11:55:47;27.50;47.10
56172;DHT22;42052;41.634;-0.946;2023-07-24T11:58:15;27.50;47.10
56172;DHT22;42052;41.634;-0.946;2023-07-24T12:00:41;27.50;47.10
56172;DHT22;42052;41.634;-0.946;2023-07-24T12:03:08;27.50;47.00
56172;DHT22;42052;41.634;-0.946;2023-07-24T12:08:06;27.50;47.00
56172;DHT22;42052;41.634;-0.946;2023-07-24T12:10:31;27.50;47.00
56172;DHT22;42052;41.634;-0.946;2023-07-24T12:13:00;27.60;48.10
56172;DHT22;42052;41.634;-0.946;2023-07-24T12:15:26;27.60;48.00
56172;DHT22;42052;41.634;-0.946;2023-07-24T12:17:53;27.60;47.90
56172;DHT22;42052;41.634;-0.946;2023-07-24T12:20:18;27.60;47.90
56172;DHT22;42052;41.634;-0.946;2023-07-24T12:22:44;27.60;48.60
56172;DHT22;42052;41.634;-0.946;2023-07-24T12:25:10;27.60;47.90
56172;DHT22;42052;41.634;-0.946;2023-07-24T12:27:36;27.60;47.70
56172;DHT22;42052;41.634;-0.946;2023-07-24T12:30:04;27.60;47.80
56172;DHT22;42052;41.634;-0.946;2023-07-24T12:32:30;27.60;47.80
56172;DHT22;42052;41.634;-0.946;2023-07-24T12:34:55;27.60;47.80
56172;DHT22;42052;41.634;-0.946;2023-07-24T12:37:21;27.60;47.90
56172;DHT22;42052;41.634;-0.946;2023-07-24T12:39:48;27.60;47.90
56172;DHT22;42052;41.634;-0.946;2023-07-24T12:42:14;27.60;48.00
56172;DHT22;42052;41.634;-0.946;2023-07-24T12:44:41;27.60;47.90
56172;DHT22;42052;41.634;-0.946;2023-07-24T12:47:07;27.60;47.90
56172;DHT22;42052;41.634;-0.946;2023-07-24T12:49:33;27.60;47.80
56172;DHT22;42052;41.634;-0.946;2023-07-24T12:51:59;27.60;47.90
56172;DHT22;42052;41.634;-0.946;2023-07-24T12:54:25;27.60;47.80
56172;DHT22;42052;41.634;-0.946;2023-07-24T12:56:51;27.60;47.60
56172;DHT22;42052;41.634;-0.946;2023-07-24T12:59:18;27.60;47.70
56172;DHT22;42052;41.634;-0.946;2023-07-24T13:01:44;27.60;47.60
56172;DHT22;42052;41.634;-0.946;2023-07-24T13:04:10;27.60;47.60
56172;DHT22;42052;41.634;-0.946;2023-07-24T13:06:36;27.60;47.70
56172;DHT22;42052;41.634;-0.946;2023-07-24T13:09:02;27.60;47.70
56172;DHT22;42052;41.634;-0.946;2023-07-24T13:11:29;27.60;47.60
56172;DHT22;42052;41.634;-0.946;2023-07-24T13:13:55;27.60;47.60
56172;DHT22;42052;41.634;-0.946;2023-07-24T13:16:21;27.60;47.60
56172;DHT22;42052;41.634;-0.946;2023-07-24T13:18:47;27.70;47.60
56172;DHT22;42052;41.634;-0.946;2023-07-24T13:21:13;27.60;47.60
56172;DHT22;42052;41.634;-0.946;2023-07-24T13:23:40;27.60;47.50
56172;DHT22;42052;41.634;-0.946;2023-07-24T13:26:06;27.70;47.70
56172;DHT22;42052;41.634;-0.946;2023-07-24T13:28:34;27.70;47.60
56172;DHT22;42052;41.634;-0.946;2023-07-24T13:31:10;27.70;47.70
56172;DHT22;42052;41.634;-0.946;2023-07-24T13:33:36;27.70;47.60
56172;DHT22;42052;41.634;-0.946;2023-07-24T13:36:02;27.60;47.60
56172;DHT22;42052;41.634;-0.946;2023-07-24T13:38:28;27.70;47.60
56172;DHT22;42052;41.634;-0.946;2023-07-24T13:40:54;27.70;47.60
56172;DHT22;42052;41.634;-0.946;2023-07-24T13:43:19;27.70;47.50
56172;DHT22;42052;41.634;-0.946;2023-07-24T13:45:45;27.70;47.50
56172;DHT22;42052;41.634;-0.946;2023-07-24T13:48:11;27.70;47.60
56172;DHT22;42052;41.634;-0.946;2023-07-24T13:50:37;27.70;47.60
56172;DHT22;42052;41.634;-0.946;2023-07-24T13:53:02;27.70;47.60
56172;DHT22;42052;41.634;-0.946;2023-07-24T13:55:28;27.70;47.60
56172;DHT22;42052;41.634;-0.946;2023-07-24T13:57:54;27.70;47.50
56172;DHT22;42052;41.634;-0.946;2023-07-24T14:00:19;27.70;47.50
56172;DHT22;42052;41.634;-0.946;2023-07-24T14:02:45;27.70;47.60
56172;DHT22;42052;41.634;-0.946;2023-07-24T14:05:11;27.70;47.60
56172;DHT22;42052;41.634;-0.946;2023-07-24T14:07:36;27.70;47.60
56172;DHT22;42052;41.634;-0.946;2023-07-24T14:10:02;27.70;47.50
56172;DHT22;42052;41.634;-0.946;2023-07-24T14:12:28;27.70;47.60
56172;DHT22;42052;41.634;-0.946;2023-07-24T14:14:54;27.70;47.60
56172;DHT22;42052;41.634;-0.946;2023-07-24T14:17:19;27.70;47.70
56172;DHT22;42052;41.634;-0.946;2023-07-24T14:19:45;27.70;47.60
56172;DHT22;42052;41.634;-0.946;2023-07-24T14:22:11;27.70;47.60
56172;DHT22;42052;41.634;-0.946;2023-07-24T14:24:36;27.70;47.60
56172;DHT22;42052;41.634;-0.946;2023-07-24T14:27:02;27.70;47.70
56172;DHT22;42052;41.634;-0.946;2023-07-24T14:29:28;27.70;47.60
56172;DHT22;42052;41.634;-0.946;2023-07-24T14:31:54;27.70;47.70
56172;DHT22;42052;41.634;-0.946;2023-07-24T14:34:19;27.80;47.70
56172;DHT22;42052;41.634;-0.946;2023-07-24T14:36:45;27.70;47.60
56172;DHT22;42052;41.634;-0.946;2023-07-24T14:39:11;27.80;47.80
56172;DHT22;42052;41.634;-0.946;2023-07-24T14:41:36;27.70;47.70
56172;DHT22;42052;41.634;-0.946;2023-07-24T14:44:02;27.80;47.90
56172;DHT22;42052;41.634;-0.946;2023-07-24T14:46:28;27.80;47.80
56172;DHT22;42052;41.634;-0.946;2023-07-24T14:48:54;27.70;47.70
56172;DHT22;42052;41.634;-0.946;2023-07-24T14:51:20;27.70;47.60
56172;DHT22;42052;41.634;-0.946;2023-07-24T14:53:45;27.80;47.70
56172;DHT22;42052;41.634;-0.946;2023-07-24T14:56:11;27.70;47.50
56172;DHT22;42052;41.634;-0.946;2023-07-24T14:58:37;27.80;47.60
56172;DHT22;42052;41.634;-0.946;2023-07-24T15:01:02;27.80;47.60
56172;DHT22;42052;41.634;-0.946;2023-07-24T15:03:28;27.80;47.50
56172;DHT22;42052;41.634;-0.946;2023-07-24T15:05:54;27.80;47.60
56172;DHT22;42052;41.634;-0.946;2023-07-24T15:08:21;27.80;47.60
56172;DHT22;42052;41.634;-0.946;2023-07-24T15:10:47;27.80;47.40
56172;DHT22;42052;41.634;-0.946;2023-07-24T15:13:13;27.80;47.40
56172;DHT22;42052;41.634;-0.946;2023-07-24T15:15:39;27.80;47.40
56172;DHT22;42052;41.634;-0.946;2023-07-24T15:18:05;27.80;47.40
56172;DHT22;42052;41.634;-0.946;2023-07-24T15:20:32;27.80;47.40
56172;DHT22;42052;41.634;-0.946;2023-07-24T15:22:57;27.80;47.50